KPIB

Details ICAO KPIB (PIB)
Name HATTIESBURG LAUREL RGNL
Region United States
Timezone America/Chicago (UTC-6.0)
Plans Departing 9
Arriving 9
Stats Elevation 297 ft / 91 m (AMSL)
Location 31.467146° -89.337058°
Runways 1
Magnetic Variation 1.474° W
Sunrise 2017-12-16 12:51:18 UTC / 2017-12-16 06:51:18 Local
Sunset 2017-12-16 22:57:39 UTC / 2017-12-16 16:57:39 Local
Advertisement - Login to hide

Runways

ID Width Length Bearing (true) Bearing (mag) Surface Threshold Offset Overrun Length
18 150 ft / 46 m 6,523 ft / 1,988 m 179.94° 181.41° Asphalt 0 ft / 0 m 200 ft / 61 m
36 150 ft / 46 m 6,523 ft / 1,988 m 359.94° 1.41° Asphalt 0 ft / 0 m 0 ft / 0 m

Approach Navaids

Runway Type Ident Frequency Range Bearing (true) Bearing (mag) Slope Elevation
18 Localiser IPIB 109.50 MHz 18 nm / 33 km 179.93° 181.40° - 297 ft / 91 m (AMSL)
18 Glidescope IPIB 109.50 MHz 10 nm / 19 km 179.94° 181.41° 3.00° 297 ft / 91 m (AMSL)

Map

Weather


0- 5 10 15 20 25 30 35+ Temperature / ° C

Clouds and Precipitation
Forecast for 2017-12-16 12:00 UTC. Updated 4 minutes ago

Ground ~20,000 ft ~40,000 ft Winds

METAR

KPIB 160656Z AUTO 00000KT 8SM CLR M02/M03 A3028 RMK AO2 SLP256 T10221028 FZRANO

TAF

Not found

Frequencies

Recorded 128.32 MHz AWOS 3
Unicom 123.00 MHz CTAF/UNICOM
Warning: Do not use this data for real-world aviation or navigation. No guarantee of current accuracy is given.